createdAt,value
2023-02-02T00:01:26.675Z,19.25
2023-02-02T00:03:56.781Z,20.20
2023-02-02T00:06:26.176Z,20.45
2023-02-02T00:08:54.307Z,24.40
2023-02-02T00:11:22.044Z,12.68
2023-02-02T00:13:49.875Z,19.48
2023-02-02T00:16:38.502Z,25.83
2023-02-02T00:19:08.961Z,20.60
2023-02-02T00:21:36.564Z,21.45
2023-02-02T00:24:04.388Z,20.95
2023-02-02T00:26:32.430Z,22.05
2023-02-02T00:29:00.212Z,16.48
2023-02-02T00:31:28.030Z,18.13
2023-02-02T00:33:55.744Z,18.60
2023-02-02T00:36:25.011Z,19.75
2023-02-02T00:38:53.285Z,20.05
2023-02-02T00:41:21.125Z,19.55
2023-02-02T00:44:09.402Z,17.50
2023-02-02T00:46:39.759Z,11.93
2023-02-02T00:49:07.452Z,17.88
2023-02-02T00:51:36.793Z,15.07
2023-02-02T00:54:05.416Z,15.57
2023-02-02T00:56:33.481Z,16.00
2023-02-02T00:59:01.233Z,14.88
2023-02-02T01:01:29.087Z,14.52
2023-02-02T01:03:56.784Z,17.67
2023-02-02T01:06:24.440Z,20.80
2023-02-02T01:08:53.831Z,17.35
2023-02-02T01:11:21.907Z,13.45
2023-02-02T01:13:49.575Z,14.23
2023-02-02T01:16:17.404Z,14.40
2023-02-02T01:18:45.104Z,14.27
2023-02-02T01:21:13.678Z,19.42
2023-02-02T01:23:41.549Z,18.88
2023-02-02T01:26:12.175Z,17.40
2023-02-02T01:28:40.500Z,21.17
2023-02-02T01:31:10.521Z,18.88
2023-02-02T01:33:38.616Z,15.77
2023-02-02T01:36:08.397Z,15.27
2023-02-02T01:38:36.182Z,14.40
2023-02-02T01:41:04.988Z,14.63
2023-02-02T01:43:56.293Z,8.23
2023-02-02T01:46:27.191Z,20.00
2023-02-02T01:49:02.609Z,10.35
2023-02-02T01:51:36.009Z,17.55
2023-02-02T01:54:06.151Z,17.02
2023-02-02T01:56:37.893Z,17.55
2023-02-02T01:59:08.001Z,23.15
2023-02-02T02:01:35.717Z,11.85
2023-02-02T02:04:03.772Z,12.63
2023-02-02T02:06:32.460Z,11.90
2023-02-02T02:09:04.259Z,9.43
2023-02-02T02:11:33.335Z,8.70
2023-02-02T02:14:21.741Z,16.17
2023-02-02T02:17:02.725Z,14.02
2023-02-02T02:20:16.202Z,15.73
2023-02-02T02:23:29.928Z,18.58
2023-02-02T02:26:35.057Z,12.52
2023-02-02T02:29:19.451Z,16.02
2023-02-02T02:32:19.892Z,14.32
2023-02-02T02:34:54.941Z,17.45
2023-02-02T02:37:34.612Z,13.30
2023-02-02T02:40:07.465Z,15.90
2023-02-02T02:42:40.018Z,16.83
2023-02-02T02:45:10.348Z,13.20
2023-02-02T02:47:40.310Z,15.27
2023-02-02T02:50:08.897Z,18.13
2023-02-02T02:52:37.731Z,23.35
2023-02-02T02:55:07.845Z,21.83
2023-02-02T02:57:48.947Z,17.65
2023-02-02T03:00:33.735Z,28.08
2023-02-02T03:03:11.037Z,16.55
2023-02-02T03:05:51.010Z,19.15
2023-02-02T03:08:24.031Z,16.00
2023-02-02T03:10:52.770Z,23.90
2023-02-02T03:13:20.594Z,22.10
2023-02-02T03:15:48.405Z,14.32
2023-02-02T03:18:21.071Z,11.15
2023-02-02T03:20:48.800Z,7.13
2023-02-02T03:23:16.482Z,11.77
2023-02-02T03:25:44.746Z,16.02
2023-02-02T03:28:12.682Z,12.50
2023-02-02T03:30:42.762Z,12.57
2023-02-02T03:33:11.886Z,12.10
2023-02-02T03:35:41.023Z,14.80
2023-02-02T03:38:08.932Z,13.70
2023-02-02T03:40:36.720Z,14.25
2023-02-02T03:43:04.379Z,7.72
2023-02-02T03:45:35.405Z,7.25
2023-02-02T03:48:04.694Z,10.50
2023-02-02T03:50:32.521Z,13.40
2023-02-02T03:53:02.059Z,13.77
2023-02-02T03:55:29.794Z,6.20
2023-02-02T03:57:57.624Z,14.00
2023-02-02T04:00:25.617Z,15.10
2023-02-02T04:02:54.879Z,10.70
2023-02-02T04:05:23.010Z,8.93
2023-02-02T04:07:50.839Z,12.63
2023-02-02T04:10:20.652Z,13.77
2023-02-02T04:12:48.239Z,12.75
2023-02-02T04:15:16.158Z,10.57
2023-02-02T04:17:44.332Z,13.50
2023-02-02T04:20:13.387Z,15.80
2023-02-02T04:22:41.073Z,19.23
2023-02-02T04:25:09.243Z,15.45
2023-02-02T04:27:38.238Z,17.35
2023-02-02T04:30:06.958Z,15.98
2023-02-02T04:32:34.801Z,13.85
2023-02-02T04:35:02.579Z,16.88
2023-02-02T04:37:31.925Z,10.35
2023-02-02T04:39:59.601Z,13.65
2023-02-02T04:42:27.351Z,12.18
2023-02-02T04:44:56.612Z,8.10
2023-02-02T04:47:24.235Z,10.23
2023-02-02T04:49:51.988Z,12.75
2023-02-02T04:52:19.667Z,10.77
2023-02-02T04:54:47.523Z,12.02
2023-02-02T04:57:15.197Z,15.13
2023-02-02T04:59:42.848Z,11.73
2023-02-02T05:02:11.923Z,18.63
2023-02-02T05:04:39.678Z,14.23
2023-02-02T05:07:07.360Z,18.85
2023-02-02T05:09:35.062Z,13.00
2023-02-02T05:12:02.695Z,14.30
2023-02-02T05:14:30.421Z,13.80
2023-02-02T05:16:58.196Z,14.50
2023-02-02T05:19:27.184Z,13.10
2023-02-02T05:21:55.745Z,17.90
2023-02-02T05:24:23.459Z,18.83
2023-02-02T05:26:52.942Z,19.98
2023-02-02T05:29:20.609Z,16.55
2023-02-02T05:31:48.612Z,19.42
2023-02-02T05:34:16.338Z,16.13
2023-02-02T05:36:45.522Z,15.35
2023-02-02T05:39:13.500Z,18.45
2023-02-02T05:41:41.125Z,26.30
2023-02-02T05:44:10.875Z,15.55
2023-02-02T05:46:38.725Z,14.02
2023-02-02T05:49:06.334Z,19.08
2023-02-02T05:51:38.179Z,19.77
2023-02-02T05:54:07.552Z,17.85
2023-02-02T05:56:35.151Z,23.95
2023-02-02T05:59:04.977Z,18.88
2023-02-02T06:01:32.595Z,17.17
2023-02-02T06:04:00.365Z,21.42
2023-02-02T06:06:28.167Z,15.90
2023-02-02T06:08:56.003Z,21.23
2023-02-02T06:11:25.026Z,19.33
2023-02-02T06:13:52.738Z,15.88
2023-02-02T06:16:20.575Z,14.43
2023-02-02T06:18:49.115Z,12.88
2023-02-02T06:21:16.856Z,14.57
2023-02-02T06:23:45.916Z,14.05
2023-02-02T06:26:13.842Z,20.65
2023-02-02T06:28:43.121Z,20.35
2023-02-02T06:31:12.493Z,17.48
2023-02-02T06:33:40.236Z,15.07
2023-02-02T06:36:08.831Z,29.10
2023-02-02T06:38:36.477Z,17.85
2023-02-02T06:41:04.448Z,17.45
2023-02-02T06:43:32.341Z,21.90
2023-02-02T06:46:01.625Z,20.02
2023-02-02T06:48:29.356Z,16.08
2023-02-02T06:50:58.954Z,17.23
2023-02-02T06:53:26.637Z,17.90
2023-02-02T06:55:55.411Z,19.60
2023-02-02T06:58:23.199Z,14.70
2023-02-02T07:00:50.768Z,19.05
2023-02-02T07:03:21.372Z,16.80
2023-02-02T07:05:49.155Z,17.50
2023-02-02T07:08:17.045Z,21.83
2023-02-02T07:11:12.705Z,22.60
2023-02-02T07:13:32.802Z,15.85
2023-02-02T07:16:00.593Z,14.00
2023-02-02T07:18:30.533Z,9.52
2023-02-02T07:21:00.280Z,13.60
2023-02-02T07:23:28.331Z,19.25
2023-02-02T07:26:06.624Z,13.48
2023-02-02T07:28:34.676Z,16.58
2023-02-02T07:31:03.300Z,9.23
2023-02-02T07:33:32.369Z,17.10
2023-02-02T07:35:59.937Z,15.80
2023-02-02T07:38:27.801Z,15.07
2023-02-02T07:40:55.482Z,14.45
2023-02-02T07:43:23.027Z,16.30
2023-02-02T07:45:50.611Z,14.02
2023-02-02T07:48:18.377Z,14.88
2023-02-02T07:50:47.596Z,14.05
2023-02-02T07:53:15.630Z,13.52
2023-02-02T07:55:43.254Z,16.38
2023-02-02T07:58:11.238Z,12.60
2023-02-02T08:00:38.909Z,9.95
2023-02-02T08:03:06.607Z,12.50
2023-02-02T08:05:35.005Z,17.20
2023-02-02T08:08:04.173Z,13.27
2023-02-02T08:10:31.982Z,13.80
2023-02-02T08:12:59.788Z,18.42
2023-02-02T08:15:27.649Z,13.25
2023-02-02T08:17:55.656Z,15.32
2023-02-02T08:20:23.381Z,17.42
2023-02-02T08:22:51.004Z,15.77
2023-02-02T08:25:20.479Z,14.25
2023-02-02T08:27:48.275Z,8.20
2023-02-02T08:30:15.935Z,13.05
2023-02-02T08:32:43.770Z,11.80
2023-02-02T08:35:11.590Z,13.80
2023-02-02T08:37:39.414Z,7.63
2023-02-02T08:40:08.664Z,12.43
2023-02-02T08:42:37.803Z,15.25
2023-02-02T08:46:01.351Z,13.15
2023-02-02T08:48:10.415Z,12.52
2023-02-02T08:50:39.815Z,11.43
2023-02-02T08:53:08.342Z,13.50
2023-02-02T08:55:36.456Z,8.73
2023-02-02T08:58:06.796Z,10.70
2023-02-02T09:00:36.082Z,11.77
2023-02-02T09:03:03.991Z,14.50
2023-02-02T09:05:31.867Z,11.63
2023-02-02T09:08:00.107Z,11.75
2023-02-02T09:10:28.463Z,12.07
2023-02-02T09:12:56.242Z,11.05
2023-02-02T09:15:25.666Z,12.43
2023-02-02T09:17:53.602Z,14.80
2023-02-02T09:20:21.235Z,8.13
2023-02-02T09:22:49.150Z,12.73
2023-02-02T09:25:17.193Z,14.35
2023-02-02T09:27:44.983Z,7.35
2023-02-02T09:30:13.926Z,12.35
2023-02-02T09:32:42.956Z,8.98
2023-02-02T09:35:10.691Z,11.35
2023-02-02T09:37:38.533Z,11.23
2023-02-02T09:40:07.495Z,13.95
2023-02-02T09:42:48.997Z,11.27
2023-02-02T09:45:23.044Z,8.75
2023-02-02T09:47:58.615Z,7.43
2023-02-02T09:50:40.758Z,8.40
2023-02-02T09:53:15.011Z,9.93
2023-02-02T09:55:46.100Z,8.20
2023-02-02T09:58:17.747Z,9.38
2023-02-02T10:00:49.071Z,10.52
2023-02-02T10:03:22.352Z,9.05
2023-02-02T10:05:55.788Z,7.88
2023-02-02T10:08:35.062Z,7.88
2023-02-02T10:11:14.031Z,10.48
2023-02-02T10:13:44.086Z,9.13
2023-02-02T10:16:18.134Z,6.25
2023-02-02T10:18:51.065Z,6.82
2023-02-02T10:21:28.773Z,5.78
2023-02-02T10:23:58.445Z,8.00
2023-02-02T10:26:34.130Z,9.05
2023-02-02T10:29:10.027Z,9.30
2023-02-02T10:31:44.030Z,7.53
2023-02-02T10:34:22.863Z,11.02
2023-02-02T10:37:16.165Z,11.45
2023-02-02T10:39:56.892Z,12.55
2023-02-02T10:42:36.386Z,11.00
2023-02-02T10:45:11.196Z,12.10
2023-02-02T10:47:41.754Z,9.45
2023-02-02T10:50:20.402Z,7.65
2023-02-02T10:52:51.453Z,11.93
2023-02-02T10:55:28.468Z,7.85
2023-02-02T10:58:07.677Z,6.05
2023-02-02T11:00:42.028Z,7.75
2023-02-02T11:03:11.445Z,12.20
2023-02-02T11:05:58.687Z,10.32
2023-02-02T11:08:31.191Z,8.70
2023-02-02T11:11:08.992Z,8.52
2023-02-02T11:13:43.126Z,7.30
2023-02-02T11:16:41.537Z,13.30
2023-02-02T11:19:24.737Z,6.88
2023-02-02T11:21:56.787Z,4.85
2023-02-02T11:24:27.696Z,2.88
2023-02-02T11:26:57.852Z,8.18
2023-02-02T11:29:29.088Z,9.63
2023-02-02T11:31:58.396Z,7.03
2023-02-02T11:34:29.015Z,8.35
2023-02-02T11:37:03.787Z,7.65
2023-02-02T11:39:31.558Z,7.97
2023-02-02T11:42:05.174Z,7.03
2023-02-02T11:44:35.233Z,7.75
2023-02-02T11:47:05.775Z,6.72
2023-02-02T11:49:38.434Z,8.90
2023-02-02T11:52:16.223Z,10.20
2023-02-02T11:54:50.886Z,5.13
2023-02-02T11:57:21.553Z,8.30
2023-02-02T11:59:50.508Z,5.88
2023-02-02T12:02:28.034Z,4.97
2023-02-02T12:05:13.584Z,9.02
2023-02-02T12:07:46.827Z,8.18
2023-02-02T12:10:21.093Z,6.78
2023-02-02T12:12:58.491Z,6.25
2023-02-02T12:15:48.468Z,7.93
2023-02-02T12:18:32.559Z,8.13
2023-02-02T12:21:06.732Z,6.82
2023-02-02T12:23:50.339Z,5.00
2023-02-02T12:26:24.105Z,12.20
2023-02-02T12:29:11.739Z,7.85
2023-02-02T12:31:56.304Z,3.80
2023-02-02T12:34:42.005Z,7.43
2023-02-02T12:37:32.429Z,3.25
2023-02-02T12:40:16.445Z,6.28
2023-02-02T12:42:56.140Z,3.55
2023-02-02T12:45:40.987Z,8.35
2023-02-02T12:48:22.480Z,8.75
2023-02-02T12:51:07.271Z,3.72
2023-02-02T12:54:34.460Z,5.13
2023-02-02T12:56:49.018Z,8.07
2023-02-02T12:59:28.310Z,10.52
2023-02-02T13:02:07.056Z,5.93
2023-02-02T13:04:57.460Z,12.43
2023-02-02T13:07:41.908Z,3.25
2023-02-02T13:10:19.265Z,6.05
2023-02-02T13:12:54.668Z,7.13
2023-02-02T13:15:24.658Z,6.93
2023-02-02T13:17:55.451Z,3.88
2023-02-02T13:20:36.874Z,6.57
2023-02-02T13:23:10.899Z,5.15
2023-02-02T13:25:45.691Z,8.77
2023-02-02T13:28:22.189Z,6.75
2023-02-02T13:30:51.850Z,6.10
2023-02-02T13:33:25.958Z,5.32
2023-02-02T13:35:56.782Z,6.07
2023-02-02T13:38:26.611Z,5.30
2023-02-02T13:40:56.332Z,6.65
2023-02-02T13:43:34.238Z,5.93
2023-02-02T13:46:12.259Z,6.28
2023-02-02T13:48:47.660Z,5.43
2023-02-02T13:51:43.729Z,2.92
2023-02-02T13:54:45.899Z,5.10
2023-02-02T13:57:27.035Z,6.00
2023-02-02T14:00:03.488Z,6.68
2023-02-02T14:02:40.316Z,4.13
2023-02-02T14:05:09.812Z,4.53
2023-02-02T14:07:41.908Z,5.70
2023-02-02T14:10:25.056Z,7.45
2023-02-02T14:12:59.204Z,9.20
2023-02-02T14:15:40.623Z,7.07
2023-02-02T14:18:08.649Z,7.55
2023-02-02T14:20:47.884Z,5.20
2023-02-02T14:23:52.381Z,9.90
2023-02-02T14:26:42.520Z,4.43
2023-02-02T14:29:36.824Z,6.90
2023-02-02T14:32:47.411Z,3.40
2023-02-02T14:36:10.798Z,6.13
2023-02-02T14:39:03.634Z,6.75
2023-02-02T14:42:20.386Z,6.75
2023-02-02T14:45:14.785Z,7.43
2023-02-02T14:47:49.962Z,8.75
2023-02-02T14:50:27.707Z,8.00
2023-02-02T14:53:05.293Z,5.03
2023-02-02T14:55:35.286Z,4.22
2023-02-02T14:58:07.586Z,5.25
2023-02-02T15:00:36.726Z,5.22
2023-02-02T15:03:36.157Z,4.57
2023-02-02T15:06:08.621Z,7.13
2023-02-02T15:08:36.759Z,7.63
2023-02-02T15:11:22.094Z,4.55
2023-02-02T15:14:12.698Z,4.43
2023-02-02T15:16:42.264Z,3.00
2023-02-02T15:19:21.890Z,7.47
2023-02-02T15:21:53.337Z,5.40
2023-02-02T15:24:26.018Z,6.18
2023-02-02T15:26:55.888Z,6.20
2023-02-02T15:29:34.939Z,5.90
2023-02-02T15:32:07.238Z,2.58
2023-02-02T15:34:42.188Z,5.20
2023-02-02T15:37:16.539Z,7.47
2023-02-02T15:39:52.054Z,7.90
2023-02-02T15:42:43.106Z,4.85
2023-02-02T15:45:39.958Z,7.07
2023-02-02T15:48:11.123Z,4.85
2023-02-02T15:50:51.736Z,8.45
2023-02-02T15:53:26.957Z,5.07
2023-02-02T15:56:16.023Z,5.78
2023-02-02T15:59:09.864Z,3.92
2023-02-02T16:01:49.770Z,4.40
2023-02-02T16:04:22.942Z,5.07
2023-02-02T16:06:52.579Z,5.03
2023-02-02T16:09:25.362Z,9.60
2023-02-02T16:11:53.759Z,9.45
2023-02-02T16:14:21.681Z,4.65
2023-02-02T16:16:50.479Z,7.32
2023-02-02T16:19:22.292Z,7.05
2023-02-02T16:21:54.779Z,10.93
2023-02-02T16:24:25.059Z,6.75
2023-02-02T16:26:55.371Z,8.88
2023-02-02T16:29:23.303Z,4.68
2023-02-02T16:31:51.943Z,4.78
2023-02-02T16:34:40.189Z,3.72
2023-02-02T16:37:15.113Z,4.60
2023-02-02T16:39:43.128Z,9.38
2023-02-02T16:42:12.059Z,5.25
2023-02-02T16:44:42.919Z,5.78
2023-02-02T16:47:34.546Z,7.50
2023-02-02T16:50:27.677Z,5.35
2023-02-02T16:53:00.802Z,2.33
2023-02-02T16:55:43.449Z,7.55
2023-02-02T16:58:20.584Z,4.65
2023-02-02T17:01:13.685Z,8.60
2023-02-02T17:03:48.598Z,8.95
2023-02-02T17:06:16.345Z,7.47
2023-02-02T17:08:45.868Z,8.10
2023-02-02T17:11:23.037Z,4.68
2023-02-02T17:13:51.793Z,7.07
2023-02-02T17:16:22.681Z,8.30
2023-02-02T17:18:51.336Z,6.80
2023-02-02T17:21:21.825Z,8.27
2023-02-02T17:23:54.033Z,8.00
2023-02-02T17:26:22.021Z,7.57
2023-02-02T17:28:51.763Z,6.47
2023-02-02T17:31:19.620Z,15.43
2023-02-02T17:33:47.608Z,9.73
2023-02-02T17:36:15.203Z,11.43
2023-02-02T17:38:43.142Z,7.68
2023-02-02T17:41:14.164Z,11.57
2023-02-02T17:43:42.864Z,10.20
2023-02-02T17:46:12.965Z,7.90
2023-02-02T17:48:40.822Z,7.70
2023-02-02T17:51:14.981Z,11.00
2023-02-02T17:53:42.783Z,10.77
2023-02-02T17:56:11.895Z,7.53
2023-02-02T17:58:39.582Z,4.82
2023-02-02T18:01:08.664Z,7.18
2023-02-02T18:03:39.621Z,3.30
2023-02-02T18:06:08.216Z,6.63
2023-02-02T18:08:35.997Z,9.93
2023-02-02T18:11:04.891Z,11.18
2023-02-02T18:13:35.057Z,7.03
2023-02-02T18:16:04.121Z,4.15
2023-02-02T18:18:32.764Z,5.15
2023-02-02T18:21:01.334Z,5.35
2023-02-02T18:23:30.358Z,5.40
2023-02-02T18:26:09.345Z,5.13
2023-02-02T18:28:40.141Z,6.88
2023-02-02T18:31:10.414Z,6.53
2023-02-02T18:33:40.680Z,4.68
2023-02-02T18:36:20.109Z,9.13
2023-02-02T18:38:51.160Z,5.15
2023-02-02T18:41:22.711Z,5.90
2023-02-02T18:43:55.541Z,8.10
2023-02-02T18:46:24.323Z,9.55
2023-02-02T18:48:55.374Z,7.57
2023-02-02T18:51:25.541Z,6.13
2023-02-02T18:54:00.972Z,8.65
2023-02-02T18:56:32.582Z,7.15
2023-02-02T18:59:04.656Z,8.18
2023-02-02T19:01:34.745Z,8.95
2023-02-02T19:04:05.222Z,5.55
2023-02-02T19:06:51.752Z,11.55
2023-02-02T19:09:23.004Z,8.32
2023-02-02T19:11:55.185Z,7.55
2023-02-02T19:14:29.535Z,11.23
2023-02-02T19:17:02.676Z,7.05
2023-02-02T19:19:34.068Z,5.88
2023-02-02T19:22:09.762Z,3.65
2023-02-02T19:24:40.253Z,9.52
2023-02-02T19:27:20.511Z,5.60
2023-02-02T19:29:52.933Z,7.43
2023-02-02T19:32:23.661Z,9.55
2023-02-02T19:34:54.506Z,12.20
2023-02-02T19:37:26.172Z,4.20
2023-02-02T19:39:56.963Z,6.88
2023-02-02T19:42:26.656Z,10.13
2023-02-02T19:44:57.988Z,6.97
2023-02-02T19:47:35.234Z,5.63
2023-02-02T19:50:16.276Z,14.98
2023-02-02T19:52:44.963Z,5.78
2023-02-02T19:55:24.092Z,14.73
2023-02-02T19:57:52.444Z,8.90
2023-02-02T20:00:25.457Z,11.77
2023-02-02T20:02:58.659Z,7.35
2023-02-02T20:05:28.829Z,9.38
2023-02-02T20:08:02.896Z,11.55
2023-02-02T20:10:38.053Z,11.25
2023-02-02T20:13:15.806Z,7.00
2023-02-02T20:15:44.844Z,11.18
2023-02-02T20:18:16.684Z,15.85
2023-02-02T20:20:46.949Z,10.40
2023-02-02T20:23:30.015Z,9.27
2023-02-02T20:25:59.422Z,10.13
2023-02-02T20:28:43.199Z,15.45
2023-02-02T20:31:14.299Z,8.20
2023-02-02T20:33:44.489Z,9.55
2023-02-02T20:36:40.927Z,14.73
2023-02-02T20:39:23.394Z,9.63
2023-02-02T20:41:52.208Z,10.88
2023-02-02T20:44:19.878Z,6.22
2023-02-02T20:46:49.113Z,11.38
2023-02-02T20:49:16.850Z,9.32
2023-02-02T20:51:44.679Z,7.35
2023-02-02T20:54:12.444Z,9.77
2023-02-02T20:56:41.086Z,7.95
2023-02-02T20:59:08.876Z,8.20
2023-02-02T21:01:36.768Z,7.18
2023-02-02T21:04:07.192Z,7.72
2023-02-02T21:06:35.267Z,5.05
2023-02-02T21:09:03.525Z,6.97
2023-02-02T21:11:31.494Z,5.70
2023-02-02T21:13:59.742Z,7.85
2023-02-02T21:16:28.348Z,5.38
2023-02-02T21:18:56.168Z,3.95
2023-02-02T21:21:25.703Z,6.28
2023-02-02T21:23:53.579Z,9.90
2023-02-02T21:26:23.543Z,5.47
2023-02-02T21:28:51.280Z,8.48
2023-02-02T21:31:19.539Z,11.73
2023-02-02T21:33:49.987Z,11.30
2023-02-02T21:36:40.841Z,6.40
2023-02-02T21:39:21.673Z,8.82
2023-02-02T21:41:51.136Z,6.63
2023-02-02T21:44:21.499Z,7.93
2023-02-02T21:46:52.297Z,6.13
2023-02-02T21:49:23.882Z,9.30
2023-02-02T21:51:58.592Z,9.18
2023-02-02T21:54:28.550Z,7.88
2023-02-02T21:56:56.570Z,8.38
2023-02-02T21:59:28.296Z,7.50
2023-02-02T22:01:55.935Z,9.68
2023-02-02T22:04:25.277Z,9.00
2023-02-02T22:06:55.718Z,6.05
2023-02-02T22:09:25.543Z,7.93
2023-02-02T22:11:56.700Z,5.07
2023-02-02T22:14:32.703Z,9.60
2023-02-02T22:17:01.034Z,5.13
2023-02-02T22:19:32.685Z,7.35
2023-02-02T22:22:12.921Z,9.50
2023-02-02T22:24:40.603Z,8.07
2023-02-02T22:27:18.995Z,7.70
2023-02-02T22:29:46.755Z,7.40
2023-02-02T22:32:14.684Z,6.50
2023-02-02T22:34:42.280Z,5.63
2023-02-02T22:37:11.182Z,8.18
2023-02-02T22:39:42.836Z,5.47
2023-02-02T22:42:10.939Z,3.38
2023-02-02T22:44:38.606Z,6.40
2023-02-02T22:47:06.433Z,5.03
2023-02-02T22:49:34.038Z,6.88
2023-02-02T22:52:01.855Z,4.82
2023-02-02T22:54:31.118Z,6.13
2023-02-02T22:56:58.715Z,4.45
2023-02-02T22:59:26.595Z,2.97
2023-02-02T23:01:54.323Z,3.45
2023-02-02T23:04:21.917Z,5.57
2023-02-02T23:06:49.671Z,3.15
2023-02-02T23:09:17.480Z,7.22
2023-02-02T23:11:48.081Z,3.95
2023-02-02T23:14:17.110Z,4.25
2023-02-02T23:16:44.831Z,4.35
2023-02-02T23:19:12.669Z,4.30
2023-02-02T23:21:40.320Z,4.30
2023-02-02T23:24:08.800Z,3.83
2023-02-02T23:26:36.537Z,4.80
2023-02-02T23:29:05.691Z,3.35
2023-02-02T23:31:33.588Z,5.45
2023-02-02T23:34:01.328Z,5.28
2023-02-02T23:36:28.957Z,3.67
2023-02-02T23:38:56.638Z,4.80
2023-02-02T23:41:24.287Z,2.90
2023-02-02T23:43:52.011Z,5.13
2023-02-02T23:46:21.248Z,6.45
2023-02-02T23:48:49.180Z,5.85
2023-02-02T23:51:17.144Z,8.23
2023-02-02T23:53:46.259Z,8.95
2023-02-02T23:56:14.066Z,5.93
2023-02-02T23:58:42.788Z,7.72
